Time;durP1;ratioP1;P1;durP2;ratioP2;P2;SDS_P1;SDS_P2;PMS_P1;PMS_P2;Temp;Humidity;BMP_temperature;BMP_pressure;BME280_temperature;BME280_humidity;BME280_pressure;Samples;Min_cycle;Max_cycle;Signal;HPM_P1;HPM_P2
2022/10/24 00:01:33;;;;;;;2.63;2.42;;;;;;;13.11;100.00;63354.88;5008475;28;20231;-76
2022/10/24 00:03:59;;;;;;;4.95;2.47;;;;;;;13.05;100.00;63343.53;4990703;28;20210;-76
2022/10/24 00:06:26;;;;;;;2.60;2.40;;;;;;;13.04;100.00;63340.47;5008912;28;20258;-76
2022/10/24 00:08:53;;;;;;;5.15;2.63;;;;;;;12.99;100.00;63339.84;5007501;28;20207;-76
2022/10/24 00:11:22;;;;;;;2.60;2.38;;;;;;;12.99;100.00;63337.81;5005612;28;20231;-76
2022/10/24 00:13:50;;;;;;;5.00;2.80;;;;;;;13.08;100.00;63347.16;5005591;28;20199;-75
2022/10/24 00:16:18;;;;;;;4.00;2.72;;;;;;;13.06;100.00;63347.66;4989480;28;20335;-76
2022/10/24 00:18:46;;;;;;;3.58;2.70;;;;;;;13.10;100.00;63351.28;4989235;28;20212;-76
2022/10/24 00:21:14;;;;;;;5.43;3.17;;;;;;;13.09;100.00;63350.25;5006988;28;20215;-76
2022/10/24 00:23:41;;;;;;;3.83;2.70;;;;;;;13.07;100.00;63348.16;4999498;28;20226;-76
2022/10/24 00:26:09;;;;;;;2.83;2.60;;;;;;;13.04;100.00;63340.47;5011526;28;20447;-76
2022/10/24 00:28:37;;;;;;;4.53;2.90;;;;;;;13.00;100.00;63338.84;5007195;28;20280;-76
2022/10/24 00:31:05;;;;;;;4.38;2.67;;;;;;;13.03;100.00;63341.97;4994344;28;20219;-76
2022/10/24 00:33:34;;;;;;;4.90;2.97;;;;;;;13.00;100.00;63341.41;4992072;28;20207;-76
2022/10/24 00:36:01;;;;;;;3.00;2.78;;;;;;;13.04;100.00;63345.59;5007044;28;20292;-76
2022/10/24 00:38:28;;;;;;;5.38;2.50;;;;;;;12.95;100.00;63333.16;4997862;28;20257;-75
2022/10/24 00:40:55;;;;;;;4.90;3.13;;;;;;;12.90;100.00;63331.03;5011586;28;20199;-76
2022/10/24 00:43:24;;;;;;;3.45;3.15;;;;;;;12.84;100.00;63324.31;5007841;28;20215;-75
2022/10/24 00:45:54;;;;;;;3.00;2.67;;;;;;;12.78;100.00;63316.56;5007076;28;20199;-76
2022/10/24 00:48:25;;;;;;;3.35;3.13;;;;;;;12.64;100.00;63304.06;5008938;28;20222;-76
2022/10/24 00:50:57;;;;;;;2.90;2.70;;;;;;;12.61;100.00;63296.38;5007593;28;20259;-76
2022/10/24 00:53:26;;;;;;;5.15;3.03;;;;;;;12.59;100.00;63299.41;5006170;28;20547;-75
2022/10/24 00:55:57;;;;;;;6.43;3.05;;;;;;;12.51;100.00;63290.59;5008525;28;20259;-75
2022/10/24 00:58:27;;;;;;;5.82;3.25;;;;;;;12.51;100.00;63290.59;5008840;28;20250;-75
2022/10/24 01:00:54;;;;;;;4.45;3.50;;;;;;;12.34;100.00;63276.03;5006254;28;20206;-76
2022/10/24 01:03:21;;;;;;;7.60;2.78;;;;;;;12.44;100.00;63286.41;5007724;28;20195;-75
2022/10/24 01:06:23;;;;;;;4.65;3.53;;;;;;;12.50;100.00;63289.56;5009201;28;20199;-77
2022/10/24 01:09:00;;;;;;;4.93;2.97;;;;;;;12.40;100.00;63279.72;5007197;28;20238;-76
2022/10/24 01:11:47;;;;;;;3.63;3.22;;;;;;;12.47;100.00;63286.97;5005890;28;20234;-76
2022/10/24 01:14:24;;;;;;;4.60;3.47;;;;;;;12.45;100.00;63284.38;5005426;28;20412;-76
2022/10/24 01:16:58;;;;;;;9.60;4.07;;;;;;;12.45;100.00;63281.81;5007719;28;20227;-76
2022/10/24 01:20:02;;;;;;;3.55;3.25;;;;;;;12.39;100.00;63275.59;5006285;28;20436;-77
2022/10/24 01:22:37;;;;;;;6.72;3.63;;;;;;;12.42;100.00;63284.34;5006617;28;20219;-76
2022/10/24 01:25:13;;;;;;;4.78;3.60;;;;;;;12.36;100.00;63273.00;5009058;28;20258;-75
2022/10/24 01:27:56;;;;;;;6.75;3.67;;;;;;;12.32;100.00;63271.41;4991944;28;20223;-75
2022/10/24 01:30:25;;;;;;;5.53;3.63;;;;;;;12.30;100.00;63271.38;4998081;28;20255;-76
2022/10/24 01:32:58;;;;;;;3.63;3.20;;;;;;;12.26;100.00;63264.69;5000734;28;20287;-76
2022/10/24 01:35:39;;;;;;;6.65;3.83;;;;;;;12.23;100.00;63259.00;5005380;28;20237;-75
2022/10/24 01:38:13;;;;;;;9.63;3.75;;;;;;;12.14;100.00;63252.75;5007371;28;20257;-75
2022/10/24 01:40:50;;;;;;;5.68;3.33;;;;;;;12.09;100.00;63247.06;4991702;28;20199;-77
2022/10/24 01:43:21;;;;;;;4.95;4.15;;;;;;;12.08;100.00;63243.97;5006772;28;20211;-75
2022/10/24 01:45:56;;;;;;;5.28;4.25;;;;;;;12.04;100.00;63244.94;5006754;28;20202;-75
2022/10/24 01:48:26;;;;;;;7.35;4.00;;;;;;;12.03;100.00;63236.25;5007564;28;20258;-75
2022/10/24 01:50:54;;;;;;;4.22;3.38;;;;;;;12.01;100.00;63236.72;5005530;28;20203;-76
2022/10/24 01:53:24;;;;;;;4.50;3.50;;;;;;;11.97;100.00;63237.69;5005592;28;20211;-75
2022/10/24 01:55:53;;;;;;;6.28;3.90;;;;;;;11.88;100.00;63223.25;5008439;28;20515;-75
2022/10/24 01:58:21;;;;;;;6.72;4.30;;;;;;;11.75;100.00;63212.34;5007858;28;20404;-76
2022/10/24 02:00:51;;;;;;;9.35;4.10;;;;;;;11.75;100.00;63209.81;5007947;28;20242;-74
2022/10/24 02:03:24;;;;;;;4.18;3.80;;;;;;;11.76;100.00;63207.75;5026731;28;20233;-76
2022/10/24 02:05:56;;;;;;;6.32;3.72;;;;;;;11.72;100.00;63211.78;5015435;28;20242;-75
2022/10/24 02:08:30;;;;;;;3.95;3.65;;;;;;;11.83;100.00;63220.63;5006313;28;20195;-75
2022/10/24 02:11:00;;;;;;;6.78;3.88;;;;;;;11.81;100.00;63216.00;5007820;28;20230;-76
2022/10/24 02:13:32;;;;;;;3.90;3.60;;;;;;;11.81;100.00;63215.47;5005404;28;20211;-76
2022/10/24 02:16:02;;;;;;;4.65;3.53;;;;;;;11.82;100.00;63219.59;5006658;28;20226;-76
2022/10/24 02:18:30;;;;;;;5.65;3.17;;;;;;;11.83;100.00;63215.00;5005204;28;20512;-77
2022/10/24 02:21:05;;;;;;;5.10;3.92;;;;;;;11.80;100.00;63214.47;5006249;28;20313;-75
2022/10/24 02:23:38;;;;;;;3.85;3.55;;;;;;;11.84;100.00;63218.59;5006994;28;20206;-76
2022/10/24 02:26:13;;;;;;;9.82;4.40;;;;;;;11.83;100.00;63222.66;5008878;28;20396;-76
2022/10/24 02:28:45;;;;;;;3.58;3.13;;;;;;;11.85;100.00;63219.63;5006403;28;20265;-76
2022/10/24 02:31:17;;;;;;;3.97;3.45;;;;;;;11.80;100.00;63212.44;5005511;28;20246;-75
2022/10/24 02:33:46;;;;;;;6.32;3.85;;;;;;;11.81;100.00;63218.56;4990006;28;20218;-76
2022/10/24 02:36:17;;;;;;;3.80;3.40;;;;;;;11.85;100.00;63219.63;5000506;28;20285;-75
2022/10/24 02:38:47;;;;;;;5.50;3.75;;;;;;;11.86;100.00;63218.63;4988838;28;20223;-75
2022/10/24 02:41:20;;;;;;;4.63;3.80;;;;;;;11.90;100.00;63224.81;5003447;28;20231;-75
2022/10/24 02:43:50;;;;;;;7.43;3.83;;;;;;;11.90;100.00;63227.88;5006899;28;20255;-75
2022/10/24 02:46:20;;;;;;;4.65;3.65;;;;;;;11.92;100.00;63226.88;5003527;28;20235;-75
2022/10/24 02:48:52;;;;;;;6.18;4.10;;;;;;;11.98;100.00;63238.19;5004979;28;20210;-76
2022/10/24 02:51:22;;;;;;;11.75;4.15;;;;;;;11.94;100.00;63228.97;5005242;28;20273;-77
2022/10/24 02:53:51;;;;;;;9.52;4.00;;;;;;;11.94;100.00;63229.47;5005521;28;20214;-75
2022/10/24 02:56:18;;;;;;;4.38;3.97;;;;;;;12.03;100.00;63238.78;5006436;28;20247;-76
2022/10/24 02:58:45;;;;;;;8.27;3.88;;;;;;;11.93;100.00;63228.44;5006155;28;20242;-76
2022/10/24 03:01:11;;;;;;;8.15;4.00;;;;;;;11.94;100.00;63229.47;5004341;28;20223;-76
2022/10/24 03:03:40;;;;;;;5.32;3.75;;;;;;;11.92;100.00;63227.41;5003607;28;20199;-76
2022/10/24 03:06:07;;;;;;;10.25;5.82;;;;;;;11.86;100.00;63223.22;5004904;28;20455;-76
2022/10/24 03:08:34;;;;;;;8.00;4.68;;;;;;;11.83;100.00;63217.56;5006682;28;20405;-75
2022/10/24 03:11:01;;;;;;;10.55;4.75;;;;;;;11.83;100.00;63220.63;5005858;28;20211;-76
2022/10/24 03:13:27;;;;;;;10.10;4.22;;;;;;;11.76;100.00;63212.84;5005202;28;20234;-76
2022/10/24 03:15:55;;;;;;;7.55;5.28;;;;;;;11.75;100.00;63206.72;5004638;28;20269;-76
2022/10/24 03:18:21;;;;;;;10.20;5.28;;;;;;;11.71;100.00;63205.66;5004675;28;20203;-76
2022/10/24 03:20:50;;;;;;;10.07;5.22;;;;;;;11.66;100.00;63200.47;5002253;28;20242;-77
2022/10/24 03:23:18;;;;;;;8.85;5.00;;;;;;;11.60;100.00;63197.31;5001786;28;20241;-76
2022/10/24 03:25:45;;;;;;;8.45;5.20;;;;;;;11.66;100.00;63200.47;5013608;28;20203;-76
2022/10/24 03:28:12;;;;;;;7.70;4.43;;;;;;;11.53;100.00;63190.03;5012016;28;20303;-76
2022/10/24 03:30:39;;;;;;;5.97;5.20;;;;;;;11.47;100.00;63185.88;5003460;28;20255;-76
2022/10/24 03:33:06;;;;;;;7.22;5.43;;;;;;;11.42;100.00;63176.09;5004485;28;20578;-75
2022/10/24 03:35:32;;;;;;;16.77;7.75;;;;;;;11.40;100.00;63173.50;5003630;28;20285;-75
2022/10/24 03:38:01;;;;;;;13.63;7.00;;;;;;;11.40;100.00;63173.50;5004665;28;20520;-76
2022/10/24 03:40:28;;;;;;;10.30;6.93;;;;;;;11.37;100.00;63170.91;5005347;28;20204;-75
2022/10/24 03:42:55;;;;;;;14.90;8.32;;;;;;;11.38;100.00;63176.53;5006415;28;20230;-76
2022/10/24 03:45:22;;;;;;;12.20;8.43;;;;;;;11.37;100.00;63170.91;5007296;28;20262;-75
2022/10/24 03:47:49;;;;;;;13.52;8.20;;;;;;;11.35;100.00;63168.34;5003369;28;20403;-76
2022/10/24 03:50:16;;;;;;;15.68;8.20;;;;;;;11.36;100.00;63167.34;5004339;28;20230;-75
2022/10/24 03:52:43;;;;;;;13.48;7.50;;;;;;;11.34;100.00;63172.38;5005283;28;20219;-76
2022/10/24 03:55:12;;;;;;;11.77;7.53;;;;;;;11.30;100.00;63161.13;5005114;28;20211;-76
2022/10/24 03:57:39;;;;;;;14.43;6.97;;;;;;;11.36;100.00;63169.38;5004640;28;20501;-75
2022/10/24 04:00:08;;;;;;;15.80;8.13;;;;;;;11.24;100.00;63154.38;5006645;28;20226;-75
2022/10/24 04:02:34;;;;;;;10.65;6.25;;;;;;;11.23;100.00;63156.41;5003200;28;20215;-77
2022/10/24 04:05:02;;;;;;;12.23;7.90;;;;;;;11.18;100.00;63150.72;5003739;28;20531;-76
2022/10/24 04:07:29;;;;;;;9.18;7.10;;;;;;;11.16;100.00;63146.63;5005910;28;20523;-75
2022/10/24 04:09:56;;;;;;;13.82;7.68;;;;;;;11.14;100.00;63149.13;5004607;28;20229;-76
2022/10/24 04:12:24;;;;;;;7.28;6.07;;;;;;;11.12;100.00;63149.59;5005641;28;20219;-74
2022/10/24 04:14:52;;;;;;;11.20;5.95;;;;;;;11.08;100.00;63135.78;5003222;28;20199;-75
2022/10/24 04:17:19;;;;;;;8.85;5.07;;;;;;;11.17;100.00;63149.69;5004383;28;20485;-75
2022/10/24 04:19:45;;;;;;;7.47;4.43;;;;;;;11.18;100.00;63148.19;5003998;28;20208;-74
2022/10/24 04:22:13;;;;;;;8.98;4.78;;;;;;;11.20;100.00;63152.81;5006510;28;20220;-74
2022/10/24 04:24:39;;;;;;;11.18;4.82;;;;;;;11.24;100.00;63151.84;5005761;28;20234;-76
2022/10/24 04:27:07;;;;;;;6.63;4.55;;;;;;;11.27;100.00;63160.56;5004255;28;20220;-74
2022/10/24 04:29:35;;;;;;;8.25;4.13;;;;;;;11.31;100.00;63159.09;5002477;28;20295;-75
2022/10/24 04:32:03;;;;;;;7.13;4.90;;;;;;;11.31;100.00;63166.75;5003384;28;20270;-76
2022/10/24 04:34:30;;;;;;;10.13;5.22;;;;;;;11.33;100.00;63168.81;4998311;28;20199;-74
2022/10/24 04:36:57;;;;;;;7.50;4.80;;;;;;;11.40;100.00;63173.50;5004250;28;20241;-76
2022/10/24 04:39:24;;;;;;;8.20;5.03;;;;;;;11.36;100.00;63169.88;5004577;28;20283;-75
2022/10/24 04:41:51;;;;;;;9.43;5.22;;;;;;;11.34;100.00;63170.38;5004114;28;20231;-74
2022/10/24 04:44:18;;;;;;;7.75;5.40;;;;;;;11.19;100.00;63151.75;5004905;28;20192;-76
2022/10/24 04:46:47;;;;;;;10.10;6.03;;;;;;;11.23;100.00;63153.38;5004497;28;20449;-75
2022/10/24 04:49:13;;;;;;;8.05;6.13;;;;;;;11.17;100.00;63149.69;5006450;28;20207;-76
2022/10/24 04:51:40;;;;;;;12.52;8.27;;;;;;;11.19;100.00;63151.75;5008033;28;20493;-75
2022/10/24 04:54:07;;;;;;;15.95;9.00;;;;;;;11.11;100.00;63143.97;5008059;28;20435;-76
2022/10/24 04:56:34;;;;;;;15.27;9.43;;;;;;;11.12;100.00;63139.41;5006946;28;20561;-75
2022/10/24 04:59:01;;;;;;;17.58;8.63;;;;;;;11.09;100.00;63139.38;5008058;28;20246;-76
2022/10/24 05:01:28;;;;;;;14.68;9.70;;;;;;;11.09;100.00;63141.41;5009691;28;20254;-75
2022/10/24 05:03:56;;;;;;;15.00;9.70;;;;;;;11.14;100.00;63149.66;5006820;28;20203;-75
2022/10/24 05:06:23;;;;;;;14.52;9.30;;;;;;;11.12;100.00;63145.03;5006568;28;20384;-76
2022/10/24 05:08:50;;;;;;;14.35;7.95;;;;;;;11.19;100.00;63152.28;4989627;28;20199;-76
2022/10/24 05:11:17;;;;;;;14.93;8.85;;;;;;;11.19;100.00;63149.22;5006002;28;20223;-76
2022/10/24 05:13:44;;;;;;;14.02;9.43;;;;;;;11.21;100.00;63156.38;5008940;28;20210;-75
2022/10/24 05:16:10;;;;;;;14.73;8.75;;;;;;;11.24;100.00;63156.94;5006993;28;20234;-76
2022/10/24 05:18:37;;;;;;;9.57;7.97;;;;;;;11.25;100.00;63160.53;5008181;28;20254;-76
2022/10/24 05:21:06;;;;;;;11.68;7.55;;;;;;;11.27;100.00;63160.03;5005859;28;20541;-76
2022/10/24 05:23:33;;;;;;;11.90;8.25;;;;;;;11.31;100.00;63161.63;5001419;28;20223;-76
2022/10/24 05:26:00;;;;;;;13.45;9.48;;;;;;;11.36;100.00;63166.81;5002449;28;20203;-76
2022/10/24 05:28:27;;;;;;;14.80;8.02;;;;;;;11.38;100.00;63168.88;5005324;28;20281;-75
2022/10/24 05:30:54;;;;;;;12.90;8.40;;;;;;;11.49;100.00;63180.28;5007393;28;20208;-76
2022/10/24 05:33:22;;;;;;;11.20;7.57;;;;;;;11.55;100.00;63187.03;5011497;28;20266;-76
2022/10/24 05:35:49;;;;;;;11.95;6.75;;;;;;;11.64;100.00;63195.84;5005759;28;20204;-76
2022/10/24 05:38:18;;;;;;;9.55;5.82;;;;;;;11.71;100.00;63205.13;5000258;28;20215;-78
2022/10/24 05:40:46;;;;;;;11.57;5.55;;;;;;;11.83;100.00;63217.56;5008669;28;20203;-77
2022/10/24 05:43:13;;;;;;;8.23;5.72;;;;;;;11.94;100.00;63226.41;5008307;28;20562;-77
2022/10/24 05:45:40;;;;;;;10.05;5.50;;;;;;;12.03;100.00;63238.28;5017255;28;20196;-76
2022/10/24 05:48:07;;;;;;;14.82;5.47;;;;;;;12.12;100.00;63253.22;5012150;28;20419;-78
2022/10/24 05:50:35;;;;;;;13.82;7.32;;;;;;;12.19;100.00;63257.94;5013284;28;20357;-76
2022/10/24 05:53:02;;;;;;;9.23;6.35;;;;;;;12.14;100.00;63250.22;5019841;28;20219;-77
2022/10/24 05:55:30;;;;;;;10.70;6.35;;;;;;;12.09;100.00;63239.41;5002982;28;20195;-76
2022/10/24 05:57:57;;;;;;;9.43;7.53;;;;;;;12.20;100.00;63258.47;5017090;28;20330;-76
2022/10/24 06:00:24;;;;;;;11.38;7.53;;;;;;;12.32;100.00;63270.91;5011743;28;20294;-76
2022/10/24 06:02:51;;;;;;;9.15;6.55;;;;;;;12.43;100.00;63274.63;5004183;28;20261;-77
2022/10/24 06:05:18;;;;;;;12.70;8.18;;;;;;;12.47;100.00;63283.91;5011579;28;20283;-76
2022/10/24 06:07:46;;;;;;;11.25;7.82;;;;;;;12.47;100.00;63281.88;5001328;28;20219;-78
2022/10/24 06:10:13;;;;;;;9.90;8.18;;;;;;;12.47;100.00;63286.97;4998593;28;20224;-76
2022/10/24 06:12:42;;;;;;;17.85;9.85;;;;;;;12.12;100.00;63247.59;4990440;28;20224;-79
2022/10/24 06:15:11;;;;;;;17.23;10.98;;;;;;;12.10;100.00;63251.16;5012858;28;20203;-76
2022/10/24 06:17:38;;;;;;;17.77;11.05;;;;;;;12.20;100.00;63255.91;5020364;28;20278;-76
2022/10/24 06:20:06;;;;;;;18.83;11.68;;;;;;;12.30;100.00;63263.72;5025425;28;20203;-76
2022/10/24 06:22:33;;;;;;;29.35;12.80;;;;;;;12.33;100.00;63266.81;5027021;28;20219;-76
2022/10/24 06:25:00;;;;;;;17.45;10.98;;;;;;;12.41;100.00;63275.63;5003787;28;20197;-76
2022/10/24 06:27:27;;;;;;;24.67;12.65;;;;;;;12.50;100.00;63287.53;4997050;28;20215;-77
2022/10/24 06:29:55;;;;;;;22.05;11.15;;;;;;;12.54;100.00;63291.69;5009384;28;20347;-76
2022/10/24 06:32:22;;;;;;;20.40;12.38;;;;;;;12.39;100.00;63275.59;5002388;28;20223;-77
2022/10/24 06:34:51;;;;;;;22.08;13.82;;;;;;;12.57;100.00;63297.34;4992265;28;20199;-77
2022/10/24 06:37:18;;;;;;;25.67;12.18;;;;;;;12.75;100.00;63312.94;5007229;28;20482;-76
2022/10/24 06:39:45;;;;;;;18.33;12.43;;;;;;;12.84;100.00;63324.81;5004208;28;20479;-76
2022/10/24 06:42:12;;;;;;;15.75;11.82;;;;;;;12.95;100.00;63336.22;5007507;28;20219;-75
2022/10/24 06:44:39;;;;;;;19.52;12.43;;;;;;;12.92;100.00;63333.13;5007355;28;20488;-76
2022/10/24 06:47:07;;;;;;;19.10;12.20;;;;;;;13.07;100.00;63351.25;5006416;28;20216;-76
2022/10/24 06:49:34;;;;;;;18.30;11.60;;;;;;;13.17;100.00;63358.53;5003409;28;20207;-77
2022/10/24 06:52:01;;;;;;;20.73;11.52;;;;;;;13.30;100.00;63377.16;4995332;28;20314;-76
2022/10/24 06:54:28;;;;;;;19.00;11.73;;;;;;;13.38;100.00;63375.75;4986851;28;20227;-77
2022/10/24 06:56:55;;;;;;;18.35;11.57;;;;;;;13.28;100.00;63367.94;5001795;28;20556;-76
2022/10/24 06:59:23;;;;;;;24.55;12.18;;;;;;;13.20;100.00;63359.09;5005440;28;20254;-76
2022/10/24 07:01:49;;;;;;;20.83;13.57;;;;;;;13.22;100.00;63361.19;4988737;28;20227;-75
2022/10/24 07:04:18;;;;;;;20.13;13.25;;;;;;;13.38;100.00;63377.78;4998940;28;20235;-76
2022/10/24 07:06:45;;;;;;;26.95;12.65;;;;;;;13.52;100.00;63395.38;4999888;28;20427;-76
2022/10/24 07:09:12;;;;;;;18.83;11.90;;;;;;;13.65;100.00;63408.38;5004686;28;20210;-75
2022/10/24 07:11:39;;;;;;;28.48;13.93;;;;;;;13.81;100.00;63422.91;5009758;28;20219;-76
2022/10/24 07:14:08;;;;;;;20.70;12.18;;;;;;;13.89;100.00;63428.66;5009768;28;20195;-77
2022/10/24 07:19:27;;;;;;;19.70;12.48;;;;;;;13.97;100.00;63444.13;5032039;23;20243;-77
2022/10/24 07:21:54;;;;;;;24.00;12.13;;;;;;;14.10;100.00;63455.06;4998458;28;20517;-76
2022/10/24 07:24:21;;;;;;;19.75;14.13;;;;;;;14.20;100.00;63465.47;4989746;28;20203;-75
2022/10/24 07:26:48;;;;;;;25.63;12.63;;;;;;;14.41;100.00;63484.19;5005238;28;20216;-76
2022/10/24 07:29:15;;;;;;;20.42;12.32;;;;;;;14.52;100.00;63493.56;5000177;28;20238;-76
2022/10/24 07:31:42;;;;;;;27.50;13.23;;;;;;;14.55;100.00;63496.69;5000745;28;20270;-76
2022/10/24 07:34:10;;;;;;;24.98;12.50;;;;;;;14.71;100.00;63512.78;5005663;28;20206;-76
2022/10/24 07:36:38;;;;;;;25.17;12.65;;;;;;;14.93;100.00;63538.19;5004967;28;20234;-75
2022/10/24 07:39:05;;;;;;;19.70;11.73;;;;;;;15.04;100.00;63550.16;5002614;28;20404;-75
2022/10/24 07:41:33;;;;;;;19.25;11.73;;;;;;;14.95;100.00;63540.81;4986573;28;20223;-76
2022/10/24 07:44:01;;;;;;;22.55;12.45;;;;;;;14.99;100.00;63547.00;4969905;28;20278;-75
2022/10/24 07:46:28;;;;;;;20.65;12.75;;;;;;;15.12;99.55;63560.50;4980804;28;20265;-76
2022/10/24 07:48:56;;;;;;;25.92;13.23;;;;;;;15.15;99.38;63563.63;5000424;28;20225;-75
2022/10/24 07:51:22;;;;;;;16.92;11.82;;;;;;;15.19;98.03;63562.13;5004961;28;20215;-76
2022/10/24 07:53:51;;;;;;;34.05;11.88;;;;;;;15.30;97.85;63576.13;5008093;28;20202;-75
2022/10/24 07:56:18;;;;;;;25.80;12.88;;;;;;;15.39;96.75;63585.50;4990442;28;20535;-75
2022/10/24 07:58:47;;;;;;;17.95;11.85;;;;;;;15.46;95.26;63595.84;4990196;28;20278;-75
2022/10/24 08:01:16;;;;;;;20.00;11.40;;;;;;;15.56;95.06;63608.31;4989575;28;20220;-75
2022/10/24 08:06:30;;;;;;;20.52;10.50;;;;;;;15.80;91.36;63628.66;5038574;23;20290;-75
2022/10/24 08:08:58;;;;;;;21.30;10.27;;;;;;;15.91;91.53;63642.66;5025840;28;20202;-75
2022/10/24 08:11:27;;;;;;;17.33;10.40;;;;;;;15.89;91.35;63637.50;5016893;28;20259;-75
2022/10/24 08:13:56;;;;;;;17.58;10.48;;;;;;;16.01;90.39;63650.47;5003539;28;20285;-75
2022/10/24 08:16:23;;;;;;;14.77;9.43;;;;;;;16.06;89.55;63653.13;5003821;28;20222;-75
2022/10/24 08:18:52;;;;;;;15.10;9.65;;;;;;;15.79;89.83;63629.66;5010273;28;20277;-74
2022/10/24 08:21:21;;;;;;;18.45;9.50;;;;;;;16.02;90.50;63651.00;5004310;28;20222;-73
2022/10/24 08:23:51;;;;;;;15.13;8.77;;;;;;;15.99;89.64;63647.88;5008417;28;20199;-75
2022/10/24 08:26:21;;;;;;;11.15;9.18;;;;;;;16.16;86.85;63668.66;5022202;28;20218;-75
2022/10/24 08:28:49;;;;;;;23.13;9.65;;;;;;;16.39;85.65;63692.06;5031170;28;20202;-74
2022/10/24 08:31:19;;;;;;;15.80;9.68;;;;;;;16.35;85.43;63693.03;4993686;28;20235;-75
2022/10/24 08:33:46;;;;;;;15.20;9.27;;;;;;;16.38;85.42;63690.47;4990130;28;20195;-75
2022/10/24 08:36:18;;;;;;;11.82;7.63;;;;;;;16.38;84.96;63691.00;4993272;28;20242;-75
2022/10/24 08:38:45;;;;;;;18.75;9.07;;;;;;;16.57;83.35;63710.28;4988498;28;20544;-75
2022/10/24 08:41:18;;;;;;;11.10;9.38;;;;;;;16.49;83.21;63701.97;4989090;28;20223;-75
2022/10/24 08:43:47;;;;;;;11.75;7.85;;;;;;;16.67;82.31;63723.78;4990433;28;20196;-74
2022/10/24 08:46:31;;;;;;;17.40;9.48;;;;;;;16.74;81.23;63725.91;4989265;28;20455;-75
2022/10/24 08:49:03;;;;;;;12.73;8.10;;;;;;;16.84;79.84;63738.38;4988711;28;20275;-74
2022/10/24 08:51:39;;;;;;;15.55;8.55;;;;;;;17.04;78.81;63759.19;4990785;28;20219;-75
2022/10/24 08:54:11;;;;;;;14.75;8.50;;;;;;;17.27;79.12;63781.06;4991483;28;20218;-75
2022/10/24 08:56:38;;;;;;;12.32;7.93;;;;;;;17.47;76.65;63801.41;4990736;28;20223;-74
2022/10/24 08:59:10;;;;;;;12.30;7.95;;;;;;;17.51;76.47;63808.16;4989399;28;20235;-75
2022/10/24 09:01:43;;;;;;;14.75;7.40;;;;;;;17.67;73.85;63821.72;4989649;28;20246;-74
2022/10/24 09:04:16;;;;;;;11.40;6.95;;;;;;;17.88;73.48;63848.72;4987867;28;20198;-75
2022/10/24 09:06:44;;;;;;;10.10;6.75;;;;;;;17.83;71.75;63841.47;4989004;28;20416;-75
2022/10/24 09:09:20;;;;;;;10.68;6.65;;;;;;;17.97;71.17;63855.53;4988753;28;20210;-75
2022/10/24 09:11:52;;;;;;;10.82;6.82;;;;;;;18.09;71.87;63865.97;4991163;28;20238;-75
2022/10/24 09:14:22;;;;;;;10.38;5.43;;;;;;;18.06;70.23;63870.56;4988119;28;20265;-76
2022/10/24 09:16:53;;;;;;;12.57;5.82;;;;;;;18.11;68.85;63870.09;4997425;28;20211;-77
2022/10/24 09:19:23;;;;;;;8.98;5.72;;;;;;;18.26;69.72;63881.09;5002225;28;20206;-76
2022/10/24 09:21:53;;;;;;;9.65;5.50;;;;;;;18.50;69.10;63910.25;5004150;28;20207;-76
2022/10/24 09:24:40;;;;;;;9.48;5.50;;;;;;;18.71;67.46;63937.81;5008725;28;20234;-76
2022/10/24 09:27:14;;;;;;;5.75;5.10;;;;;;;18.73;66.45;63931.63;5023782;28;20217;-77
2022/10/24 09:29:42;;;;;;;10.13;5.20;;;;;;;18.63;65.20;63929.47;5007716;28;20202;-77
2022/10/24 09:32:16;;;;;;;13.73;6.53;;;;;;;18.53;64.94;63916.47;5011412;28;20398;-75
2022/10/24 09:34:44;;;;;;;10.70;5.20;;;;;;;18.51;66.95;63903.53;5005288;28;20225;-75
2022/10/24 09:37:28;;;;;;;9.63;5.72;;;;;;;18.86;64.17;63945.69;5016259;28;20221;-76
2022/10/24 09:40:13;;;;;;;9.68;4.97;;;;;;;19.10;62.40;63978.44;5013309;28;20483;-76
2022/10/24 09:42:41;;;;;;;7.93;5.25;;;;;;;19.09;60.87;63972.25;5016846;28;20213;-75
2022/10/24 09:45:28;;;;;;;10.52;5.97;;;;;;;19.06;61.05;63969.13;5017962;28;20210;-76
2022/10/24 09:47:57;;;;;;;6.50;4.93;;;;;;;19.05;60.84;63965.50;5023481;28;20220;-76
2022/10/24 09:50:24;;;;;;;5.57;5.00;;;;;;;19.29;60.99;63990.00;5026690;28;20420;-76
2022/10/24 09:52:54;;;;;;;6.88;5.03;;;;;;;19.47;60.13;64008.78;4988000;28;20207;-76
2022/10/24 09:55:23;;;;;;;7.25;4.60;;;;;;;19.56;58.33;64018.19;4986962;28;20204;-76
2022/10/24 09:57:54;;;;;;;5.28;4.57;;;;;;;19.54;58.73;64016.09;4988952;28;20223;-76
2022/10/24 10:00:26;;;;;;;5.25;4.72;;;;;;;19.82;58.47;64049.94;4990367;28;20218;-76
2022/10/24 10:03:00;;;;;;;5.55;4.40;;;;;;;20.07;59.00;64073.97;4989794;28;20223;-76
2022/10/24 10:05:28;;;;;;;7.70;4.18;;;;;;;20.24;55.38;64093.78;4986957;28;20211;-76
2022/10/24 10:07:55;;;;;;;8.13;4.50;;;;;;;20.16;54.76;64082.84;4987409;28;20224;-75
2022/10/24 10:10:31;;;;;;;5.55;4.32;;;;;;;19.99;55.94;64070.78;4987830;28;20200;-76
2022/10/24 10:13:03;;;;;;;7.22;4.43;;;;;;;20.05;55.73;64077.03;4997085;28;20237;-76
2022/10/24 10:15:36;;;;;;;10.35;4.95;;;;;;;20.06;55.32;64072.41;5007851;28;20199;-76
2022/10/24 10:18:20;;;;;;;10.07;4.05;;;;;;;20.04;55.72;64068.25;5010618;28;20254;-77
2022/10/24 10:20:58;;;;;;;6.53;4.63;;;;;;;20.15;55.07;64081.78;5005718;28;20222;-76
2022/10/24 10:23:30;;;;;;;7.10;4.00;;;;;;;20.21;54.40;64085.47;5006873;28;20187;-77
2022/10/24 10:26:13;;;;;;;6.40;4.38;;;;;;;20.26;54.12;64093.31;5018091;28;20229;-77
2022/10/24 10:28:46;;;;;;;5.80;4.18;;;;;;;20.17;54.26;64084.41;5026392;28;20186;-77
2022/10/24 10:31:17;;;;;;;9.43;4.38;;;;;;;20.22;54.23;64091.72;5006306;28;20273;-76
2022/10/24 10:33:53;;;;;;;10.27;4.20;;;;;;;20.26;54.74;64096.41;5008709;28;20226;-78
2022/10/24 10:36:25;;;;;;;9.23;4.35;;;;;;;20.23;53.50;64090.69;4996551;28;20225;-77
2022/10/24 10:39:01;;;;;;;12.45;4.65;;;;;;;20.32;53.46;64102.66;4988793;28;20274;-76
2022/10/24 10:41:42;;;;;;;4.32;3.97;;;;;;;20.45;52.84;64116.22;4988022;28;20231;-76
2022/10/24 10:44:27;;;;;;;11.63;4.70;;;;;;;20.54;53.17;64117.34;4987517;28;20199;-75
2022/10/24 10:47:04;;;;;;;9.73;4.80;;;;;;;20.50;52.94;64118.34;4988179;28;20224;-75
2022/10/24 10:49:36;;;;;;;7.82;4.25;;;;;;;20.52;53.23;64118.34;4987601;28;20238;-76
2022/10/24 10:52:07;;;;;;;8.10;4.07;;;;;;;20.55;51.99;64120.97;4987087;28;20229;-77
2022/10/24 10:55:08;;;;;;;9.93;4.30;;;;;;;20.60;52.18;64131.88;4988266;28;20199;-78
2022/10/24 10:57:41;;;;;;;13.77;4.68;;;;;;;20.68;52.35;64139.72;4987808;28;20223;-76
2022/10/24 11:00:11;;;;;;;13.32;4.32;;;;;;;20.95;51.60;64162.22;4986824;28;20271;-76
2022/10/24 11:02:56;;;;;;;6.75;4.35;;;;;;;21.15;51.96;64188.81;4987136;28;20227;-76
2022/10/24 11:05:45;;;;;;;7.43;5.22;;;;;;;21.10;50.97;64178.41;4988793;28;20230;-76
2022/10/24 11:08:42;;;;;;;10.38;4.82;;;;;;;21.33;51.68;64205.00;4991351;28;20211;-76
2022/10/24 11:11:14;;;;;;;5.38;4.35;;;;;;;21.60;50.22;64235.81;5005974;28;20219;-76
2022/10/24 11:13:48;;;;;;;5.85;4.57;;;;;;;21.55;49.70;64230.06;5007978;28;20495;-77
2022/10/24 11:16:21;;;;;;;8.05;4.65;;;;;;;21.63;49.03;64238.94;4998920;28;20281;-77
2022/10/24 11:18:53;;;;;;;9.00;4.28;;;;;;;21.53;48.86;64225.38;4995610;28;20206;-76
2022/10/24 11:21:23;;;;;;;12.50;4.78;;;;;;;21.47;49.32;64221.69;4997014;28;20428;-76
2022/10/24 11:23:54;;;;;;;8.10;4.75;;;;;;;21.37;49.32;64213.84;4992044;28;20199;-76
2022/10/24 11:26:27;;;;;;;7.30;4.45;;;;;;;21.44;49.09;64219.09;5004750;28;20270;-75
2022/10/24 11:28:58;;;;;;;7.13;5.15;;;;;;;21.32;49.33;64206.03;5006780;28;20395;-77
2022/10/24 11:31:28;;;;;;;10.88;5.10;;;;;;;21.50;49.27;64219.66;5005107;28;20229;-76
2022/10/24 11:34:01;;;;;;;8.27;5.53;;;;;;;21.70;49.23;64243.66;5009741;28;20198;-76
2022/10/24 11:36:36;;;;;;;5.30;4.35;;;;;;;21.82;48.61;64252.59;5008897;28;20446;-75
2022/10/24 11:39:11;;;;;;;11.50;4.85;;;;;;;21.91;48.52;64267.19;4989855;28;20234;-76
2022/10/24 11:41:50;;;;;;;7.50;4.45;;;;;;;22.02;48.22;64276.09;4990013;28;20234;-76